sensor_id;sensor_type;location;lat;lon;timestamp;temperature;humidity
22212;DHT22;11275;52.488;13.462;2023-04-01T00:02:19;11.90;99.90
22212;DHT22;11275;52.488;13.462;2023-04-01T00:04:45;12.00;99.90
22212;DHT22;11275;52.488;13.462;2023-04-01T00:07:11;11.90;99.90
22212;DHT22;11275;52.488;13.462;2023-04-01T00:09:36;12.00;99.90
22212;DHT22;11275;52.488;13.462;2023-04-01T00:12:03;11.80;99.90
22212;DHT22;11275;52.488;13.462;2023-04-01T00:14:29;11.80;99.90
22212;DHT22;11275;52.488;13.462;2023-04-01T00:16:55;11.80;99.90
22212;DHT22;11275;52.488;13.462;2023-04-01T00:19:21;11.90;99.90
22212;DHT22;11275;52.488;13.462;2023-04-01T00:21:47;11.90;99.90
22212;DHT22;11275;52.488;13.462;2023-04-01T00:24:13;11.90;99.90
22212;DHT22;11275;52.488;13.462;2023-04-01T00:26:39;11.90;99.90
22212;DHT22;11275;52.488;13.462;2023-04-01T00:29:07;12.00;99.90
22212;DHT22;11275;52.488;13.462;2023-04-01T00:31:33;12.00;99.90
22212;DHT22;11275;52.488;13.462;2023-04-01T00:33:59;12.00;99.90
22212;DHT22;11275;52.488;13.462;2023-04-01T00:36:25;12.00;99.90
22212;DHT22;11275;52.488;13.462;2023-04-01T00:38:51;12.00;99.90
22212;DHT22;11275;52.488;13.462;2023-04-01T00:41:18;12.00;99.90
22212;DHT22;11275;52.488;13.462;2023-04-01T00:43:47;12.00;99.90
22212;DHT22;11275;52.488;13.462;2023-04-01T00:46:13;12.00;99.90
22212;DHT22;11275;52.488;13.462;2023-04-01T00:48:45;12.00;99.90
22212;DHT22;11275;52.488;13.462;2023-04-01T00:51:25;12.00;99.90
22212;DHT22;11275;52.488;13.462;2023-04-01T00:53:52;12.00;99.90
22212;DHT22;11275;52.488;13.462;2023-04-01T00:56:25;12.00;99.90
22212;DHT22;11275;52.488;13.462;2023-04-01T00:58:59;12.00;99.90
22212;DHT22;11275;52.488;13.462;2023-04-01T01:01:26;12.00;99.90
22212;DHT22;11275;52.488;13.462;2023-04-01T01:03:53;12.00;99.90
22212;DHT22;11275;52.488;13.462;2023-04-01T01:06:46;12.00;99.90
22212;DHT22;11275;52.488;13.462;2023-04-01T01:11:55;12.00;99.90
22212;DHT22;11275;52.488;13.462;2023-04-01T01:14:43;12.00;99.90
22212;DHT22;11275;52.488;13.462;2023-04-01T01:37:11;11.90;99.90
22212;DHT22;11275;52.488;13.462;2023-04-01T01:39:38;11.90;99.90
22212;DHT22;11275;52.488;13.462;2023-04-01T01:42:07;11.90;99.90
22212;DHT22;11275;52.488;13.462;2023-04-01T01:44:35;11.90;99.90
22212;DHT22;11275;52.488;13.462;2023-04-01T01:47:02;11.90;99.90
22212;DHT22;11275;52.488;13.462;2023-04-01T01:49:28;11.90;99.90
22212;DHT22;11275;52.488;13.462;2023-04-01T01:51:57;11.90;99.90
22212;DHT22;11275;52.488;13.462;2023-04-01T01:54:23;11.90;99.90
22212;DHT22;11275;52.488;13.462;2023-04-01T01:56:51;11.90;99.90
22212;DHT22;11275;52.488;13.462;2023-04-01T01:59:22;11.90;99.90
22212;DHT22;11275;52.488;13.462;2023-04-01T02:01:52;11.90;99.90
22212;DHT22;11275;52.488;13.462;2023-04-01T02:04:21;11.90;99.90
22212;DHT22;11275;52.488;13.462;2023-04-01T02:06:56;11.80;99.90
22212;DHT22;11275;52.488;13.462;2023-04-01T02:09:23;11.80;99.90
22212;DHT22;11275;52.488;13.462;2023-04-01T02:12:02;11.80;99.90
22212;DHT22;11275;52.488;13.462;2023-04-01T02:17:22;11.90;99.90
22212;DHT22;11275;52.488;13.462;2023-04-01T02:20:00;11.90;99.90
22212;DHT22;11275;52.488;13.462;2023-04-01T02:22:29;11.90;99.90
22212;DHT22;11275;52.488;13.462;2023-04-01T02:25:07;11.90;99.90
22212;DHT22;11275;52.488;13.462;2023-04-01T02:27:33;11.90;99.90
22212;DHT22;11275;52.488;13.462;2023-04-01T02:29:59;11.90;99.90
22212;DHT22;11275;52.488;13.462;2023-04-01T02:32:26;11.90;99.90
22212;DHT22;11275;52.488;13.462;2023-04-01T02:34:53;11.90;99.90
22212;DHT22;11275;52.488;13.462;2023-04-01T02:37:19;11.90;99.90
22212;DHT22;11275;52.488;13.462;2023-04-01T02:39:45;11.90;99.90
22212;DHT22;11275;52.488;13.462;2023-04-01T02:42:10;11.90;99.90
22212;DHT22;11275;52.488;13.462;2023-04-01T02:44:36;11.90;99.90
22212;DHT22;11275;52.488;13.462;2023-04-01T02:47:02;11.90;99.90
22212;DHT22;11275;52.488;13.462;2023-04-01T02:49:28;11.90;99.90
22212;DHT22;11275;52.488;13.462;2023-04-01T02:51:54;11.90;99.90
22212;DHT22;11275;52.488;13.462;2023-04-01T02:54:20;11.90;99.90
22212;DHT22;11275;52.488;13.462;2023-04-01T02:56:45;11.90;99.90
22212;DHT22;11275;52.488;13.462;2023-04-01T02:59:12;11.90;99.90
22212;DHT22;11275;52.488;13.462;2023-04-01T03:01:38;11.90;99.90
22212;DHT22;11275;52.488;13.462;2023-04-01T03:04:04;11.90;99.90
22212;DHT22;11275;52.488;13.462;2023-04-01T03:06:29;12.00;99.90
22212;DHT22;11275;52.488;13.462;2023-04-01T03:08:55;11.90;99.90
22212;DHT22;11275;52.488;13.462;2023-04-01T03:11:21;12.00;99.90
22212;DHT22;11275;52.488;13.462;2023-04-01T03:13:47;12.00;99.90
22212;DHT22;11275;52.488;13.462;2023-04-01T03:16:13;11.90;99.90
22212;DHT22;11275;52.488;13.462;2023-04-01T03:18:39;11.90;99.90
22212;DHT22;11275;52.488;13.462;2023-04-01T03:21:16;11.90;99.90
22212;DHT22;11275;52.488;13.462;2023-04-01T03:23:42;11.90;99.90
22212;DHT22;11275;52.488;13.462;2023-04-01T03:26:07;11.90;99.90
22212;DHT22;11275;52.488;13.462;2023-04-01T03:28:33;11.90;99.90
22212;DHT22;11275;52.488;13.462;2023-04-01T03:30:59;11.90;99.90
22212;DHT22;11275;52.488;13.462;2023-04-01T03:33:25;12.00;99.90
22212;DHT22;11275;52.488;13.462;2023-04-01T03:35:51;11.90;99.90
22212;DHT22;11275;52.488;13.462;2023-04-01T03:38:17;11.90;99.90
22212;DHT22;11275;52.488;13.462;2023-04-01T03:40:44;11.90;99.90
22212;DHT22;11275;52.488;13.462;2023-04-01T03:43:09;11.90;99.90
22212;DHT22;11275;52.488;13.462;2023-04-01T03:45:36;11.90;99.90
22212;DHT22;11275;52.488;13.462;2023-04-01T03:48:01;11.90;99.90
22212;DHT22;11275;52.488;13.462;2023-04-01T03:50:27;11.90;99.90
22212;DHT22;11275;52.488;13.462;2023-04-01T03:52:52;11.90;99.90
22212;DHT22;11275;52.488;13.462;2023-04-01T03:55:18;11.90;99.90
22212;DHT22;11275;52.488;13.462;2023-04-01T03:57:44;11.90;99.90
22212;DHT22;11275;52.488;13.462;2023-04-01T04:00:10;11.90;99.90
22212;DHT22;11275;52.488;13.462;2023-04-01T04:02:36;11.90;99.90
22212;DHT22;11275;52.488;13.462;2023-04-01T04:05:02;11.90;99.90
22212;DHT22;11275;52.488;13.462;2023-04-01T04:07:27;11.90;99.90
22212;DHT22;11275;52.488;13.462;2023-04-01T04:09:53;11.90;99.90
22212;DHT22;11275;52.488;13.462;2023-04-01T04:12:19;11.90;99.90
22212;DHT22;11275;52.488;13.462;2023-04-01T04:14:44;11.90;99.90
22212;DHT22;11275;52.488;13.462;2023-04-01T04:17:11;11.90;99.90
22212;DHT22;11275;52.488;13.462;2023-04-01T04:19:42;12.00;99.90
22212;DHT22;11275;52.488;13.462;2023-04-01T04:22:08;11.90;99.90
22212;DHT22;11275;52.488;13.462;2023-04-01T04:24:36;12.00;99.90
22212;DHT22;11275;52.488;13.462;2023-04-01T04:27:03;12.00;99.90
22212;DHT22;11275;52.488;13.462;2023-04-01T04:29:29;12.00;99.90
22212;DHT22;11275;52.488;13.462;2023-04-01T04:31:55;12.00;99.90
22212;DHT22;11275;52.488;13.462;2023-04-01T04:34:20;12.00;99.90
22212;DHT22;11275;52.488;13.462;2023-04-01T04:36:48;12.00;99.90
22212;DHT22;11275;52.488;13.462;2023-04-01T04:39:14;11.90;99.90
22212;DHT22;11275;52.488;13.462;2023-04-01T04:41:40;12.00;99.90
22212;DHT22;11275;52.488;13.462;2023-04-01T04:44:05;12.00;99.90
22212;DHT22;11275;52.488;13.462;2023-04-01T04:46:31;11.90;99.90
22212;DHT22;11275;52.488;13.462;2023-04-01T04:48:57;12.00;99.90
22212;DHT22;11275;52.488;13.462;2023-04-01T04:51:23;12.00;99.90
22212;DHT22;11275;52.488;13.462;2023-04-01T04:53:50;12.00;99.90
22212;DHT22;11275;52.488;13.462;2023-04-01T04:56:22;12.00;99.90
22212;DHT22;11275;52.488;13.462;2023-04-01T04:58:50;11.90;99.90
22212;DHT22;11275;52.488;13.462;2023-04-01T05:01:19;12.00;99.90
22212;DHT22;11275;52.488;13.462;2023-04-01T05:03:46;11.90;99.90
22212;DHT22;11275;52.488;13.462;2023-04-01T05:06:14;11.90;99.90
22212;DHT22;11275;52.488;13.462;2023-04-01T05:08:44;11.90;99.90
22212;DHT22;11275;52.488;13.462;2023-04-01T05:11:13;11.90;99.90
22212;DHT22;11275;52.488;13.462;2023-04-01T05:13:39;11.90;99.90
22212;DHT22;11275;52.488;13.462;2023-04-01T05:16:17;11.90;99.90
22212;DHT22;11275;52.488;13.462;2023-04-01T05:18:43;11.90;99.90
22212;DHT22;11275;52.488;13.462;2023-04-01T05:21:13;11.90;99.90
22212;DHT22;11275;52.488;13.462;2023-04-01T05:23:39;11.90;99.90
22212;DHT22;11275;52.488;13.462;2023-04-01T05:26:06;11.90;99.90
22212;DHT22;11275;52.488;13.462;2023-04-01T05:28:32;11.90;99.90
22212;DHT22;11275;52.488;13.462;2023-04-01T05:30:59;11.90;99.90
22212;DHT22;11275;52.488;13.462;2023-04-01T05:33:26;11.90;99.90
22212;DHT22;11275;52.488;13.462;2023-04-01T05:35:53;11.90;99.90
22212;DHT22;11275;52.488;13.462;2023-04-01T05:38:18;12.00;99.90
22212;DHT22;11275;52.488;13.462;2023-04-01T05:40:44;11.90;99.90
22212;DHT22;11275;52.488;13.462;2023-04-01T05:43:11;11.90;99.90
22212;DHT22;11275;52.488;13.462;2023-04-01T05:45:36;12.00;99.90
22212;DHT22;11275;52.488;13.462;2023-04-01T05:48:03;12.00;99.90
22212;DHT22;11275;52.488;13.462;2023-04-01T05:50:28;12.00;99.90
22212;DHT22;11275;52.488;13.462;2023-04-01T05:52:54;12.00;99.90
22212;DHT22;11275;52.488;13.462;2023-04-01T05:55:20;12.00;99.90
22212;DHT22;11275;52.488;13.462;2023-04-01T05:57:46;12.00;99.90
22212;DHT22;11275;52.488;13.462;2023-04-01T06:00:14;12.00;99.90
22212;DHT22;11275;52.488;13.462;2023-04-01T06:02:40;12.00;99.90
22212;DHT22;11275;52.488;13.462;2023-04-01T06:05:28;12.00;99.90
22212;DHT22;11275;52.488;13.462;2023-04-01T06:08:06;12.00;99.90
22212;DHT22;11275;52.488;13.462;2023-04-01T06:10:55;12.10;99.90
22212;DHT22;11275;52.488;13.462;2023-04-01T06:16:26;12.00;99.90
22212;DHT22;11275;52.488;13.462;2023-04-01T06:19:24;12.10;99.90
22212;DHT22;11275;52.488;13.462;2023-04-01T06:27:44;12.10;99.90
22212;DHT22;11275;52.488;13.462;2023-04-01T06:33:08;12.20;99.90
22212;DHT22;11275;52.488;13.462;2023-04-01T06:46:45;12.20;99.90
22212;DHT22;11275;52.488;13.462;2023-04-01T06:55:05;12.20;99.90
22212;DHT22;11275;52.488;13.462;2023-04-01T06:57:42;12.20;99.90
22212;DHT22;11275;52.488;13.462;2023-04-01T07:00:16;12.30;99.90
22212;DHT22;11275;52.488;13.462;2023-04-01T07:05:47;12.30;99.90
22212;DHT22;11275;52.488;13.462;2023-04-01T07:08:19;12.30;99.90
22212;DHT22;11275;52.488;13.462;2023-04-01T07:10:55;12.30;99.90
22212;DHT22;11275;52.488;13.462;2023-04-01T07:13:31;12.30;99.90
22212;DHT22;11275;52.488;13.462;2023-04-01T07:16:16;12.30;99.90
22212;DHT22;11275;52.488;13.462;2023-04-01T07:19:32;12.40;99.90
22212;DHT22;11275;52.488;13.462;2023-04-01T07:21:54;12.40;99.90
22212;DHT22;11275;52.488;13.462;2023-04-01T07:24:37;12.40;99.90
22212;DHT22;11275;52.488;13.462;2023-04-01T07:27:09;12.40;99.90
22212;DHT22;11275;52.488;13.462;2023-04-01T07:29:35;12.40;99.90
22212;DHT22;11275;52.488;13.462;2023-04-01T07:32:13;12.40;99.90
22212;DHT22;11275;52.488;13.462;2023-04-01T07:37:35;12.40;99.90
22212;DHT22;11275;52.488;13.462;2023-04-01T07:42:51;12.50;99.90
22212;DHT22;11275;52.488;13.462;2023-04-01T08:22:51;12.80;99.90
22212;DHT22;11275;52.488;13.462;2023-04-01T08:25:28;12.80;99.90
22212;DHT22;11275;52.488;13.462;2023-04-01T08:28:41;12.60;99.90
22212;DHT22;11275;52.488;13.462;2023-04-01T08:33:49;12.20;99.90
22212;DHT22;11275;52.488;13.462;2023-04-01T08:36:25;11.90;99.90
22212;DHT22;11275;52.488;13.462;2023-04-01T08:39:06;11.80;99.90
22212;DHT22;11275;52.488;13.462;2023-04-01T08:42:00;11.90;99.90
22212;DHT22;11275;52.488;13.462;2023-04-01T08:47:20;11.90;99.90
22212;DHT22;11275;52.488;13.462;2023-04-01T08:52:36;12.00;99.90
22212;DHT22;11275;52.488;13.462;2023-04-01T09:00:53;12.40;99.90
22212;DHT22;11275;52.488;13.462;2023-04-01T09:03:47;12.40;99.90
22212;DHT22;11275;52.488;13.462;2023-04-01T09:06:35;12.40;99.90
22212;DHT22;11275;52.488;13.462;2023-04-01T09:15:23;12.40;99.90
22212;DHT22;11275;52.488;13.462;2023-04-01T09:20:46;12.50;99.90
22212;DHT22;11275;52.488;13.462;2023-04-01T09:31:28;12.40;99.90
22212;DHT22;11275;52.488;13.462;2023-04-01T09:40:18;12.30;99.90
22212;DHT22;11275;52.488;13.462;2023-04-01T10:32:15;11.00;99.90
22212;DHT22;11275;52.488;13.462;2023-04-01T10:37:59;11.10;99.90
22212;DHT22;11275;52.488;13.462;2023-04-01T10:40:53;11.10;99.90
22212;DHT22;11275;52.488;13.462;2023-04-01T10:49:15;11.40;99.90
22212;DHT22;11275;52.488;13.462;2023-04-01T10:54:45;11.60;99.90
22212;DHT22;11275;52.488;13.462;2023-04-01T11:00:18;11.70;99.90
22212;DHT22;11275;52.488;13.462;2023-04-01T11:06:27;11.60;99.90
22212;DHT22;11275;52.488;13.462;2023-04-01T11:15:12;11.40;99.90
22212;DHT22;11275;52.488;13.462;2023-04-01T11:31:25;11.40;99.90
22212;DHT22;11275;52.488;13.462;2023-04-01T11:58:54;11.80;99.90
22212;DHT22;11275;52.488;13.462;2023-04-01T12:01:34;11.60;99.90
22212;DHT22;11275;52.488;13.462;2023-04-01T12:07:35;11.30;99.90
22212;DHT22;11275;52.488;13.462;2023-04-01T12:10:28;11.20;99.90
22212;DHT22;11275;52.488;13.462;2023-04-01T12:24:44;10.90;99.90
22212;DHT22;11275;52.488;13.462;2023-04-01T12:27:47;11.10;99.90
22212;DHT22;11275;52.488;13.462;2023-04-01T12:55:36;11.20;99.90
22212;DHT22;11275;52.488;13.462;2023-04-01T12:58:22;11.00;99.90
22212;DHT22;11275;52.488;13.462;2023-04-01T13:15:20;11.20;99.90
22212;DHT22;11275;52.488;13.462;2023-04-01T13:18:16;10.90;99.90
22212;DHT22;11275;52.488;13.462;2023-04-01T13:21:20;10.80;99.90
22212;DHT22;11275;52.488;13.462;2023-04-01T13:29:32;10.70;99.90
22212;DHT22;11275;52.488;13.462;2023-04-01T13:32:03;10.70;99.90
22212;DHT22;11275;52.488;13.462;2023-04-01T13:40:01;10.60;99.90
22212;DHT22;11275;52.488;13.462;2023-04-01T13:42:53;10.70;99.90
22212;DHT22;11275;52.488;13.462;2023-04-01T13:45:36;10.40;99.90
22212;DHT22;11275;52.488;13.462;2023-04-01T13:54:14;10.70;99.90
22212;DHT22;11275;52.488;13.462;2023-04-01T13:59:56;10.90;99.90
22212;DHT22;11275;52.488;13.462;2023-04-01T14:25:30;10.90;99.90
22212;DHT22;11275;52.488;13.462;2023-04-01T14:30:39;10.80;99.90
22212;DHT22;11275;52.488;13.462;2023-04-01T14:33:28;10.80;99.90
22212;DHT22;11275;52.488;13.462;2023-04-01T14:36:29;10.60;99.90
22212;DHT22;11275;52.488;13.462;2023-04-01T14:39:12;10.70;99.90
22212;DHT22;11275;52.488;13.462;2023-04-01T14:42:03;10.80;99.90
22212;DHT22;11275;52.488;13.462;2023-04-01T14:50:08;10.70;99.90
22212;DHT22;11275;52.488;13.462;2023-04-01T14:52:46;10.60;99.90
22212;DHT22;11275;52.488;13.462;2023-04-01T14:55:36;10.80;99.90
22212;DHT22;11275;52.488;13.462;2023-04-01T14:58:14;10.80;99.90
22212;DHT22;11275;52.488;13.462;2023-04-01T15:03:25;11.00;99.90
22212;DHT22;11275;52.488;13.462;2023-04-01T15:06:22;10.80;99.90
22212;DHT22;11275;52.488;13.462;2023-04-01T15:17:05;10.30;99.90
22212;DHT22;11275;52.488;13.462;2023-04-01T15:22:57;10.30;99.90
22212;DHT22;11275;52.488;13.462;2023-04-01T15:25:45;10.30;99.90
22212;DHT22;11275;52.488;13.462;2023-04-01T15:31:18;10.20;99.90
22212;DHT22;11275;52.488;13.462;2023-04-01T15:36:55;9.50;99.90
22212;DHT22;11275;52.488;13.462;2023-04-01T15:50:23;9.70;99.90
22212;DHT22;11275;52.488;13.462;2023-04-01T15:53:11;9.80;99.90
22212;DHT22;11275;52.488;13.462;2023-04-01T15:56:36;9.80;99.90
22212;DHT22;11275;52.488;13.462;2023-04-01T15:59:04;9.80;99.90
22212;DHT22;11275;52.488;13.462;2023-04-01T16:01:59;9.80;99.90
22212;DHT22;11275;52.488;13.462;2023-04-01T16:04:45;9.80;99.90
22212;DHT22;11275;52.488;13.462;2023-04-01T16:07:30;9.90;99.90
22212;DHT22;11275;52.488;13.462;2023-04-01T16:15:49;9.90;99.90
22212;DHT22;11275;52.488;13.462;2023-04-01T16:18:26;9.90;99.90
22212;DHT22;11275;52.488;13.462;2023-04-01T16:21:02;9.90;99.90
22212;DHT22;11275;52.488;13.462;2023-04-01T16:24:02;9.70;99.90
22212;DHT22;11275;52.488;13.462;2023-04-01T16:26:52;9.40;99.90
22212;DHT22;11275;52.488;13.462;2023-04-01T16:37:39;9.00;99.90
22212;DHT22;11275;52.488;13.462;2023-04-01T16:40:37;9.10;99.90
22212;DHT22;11275;52.488;13.462;2023-04-01T16:45:42;9.00;99.90
22212;DHT22;11275;52.488;13.462;2023-04-01T16:48:20;8.90;99.90
22212;DHT22;11275;52.488;13.462;2023-04-01T16:56:20;9.00;99.90
22212;DHT22;11275;52.488;13.462;2023-04-01T16:59:07;8.90;99.90
22212;DHT22;11275;52.488;13.462;2023-04-01T17:04:36;9.10;99.90
22212;DHT22;11275;52.488;13.462;2023-04-01T17:07:45;9.00;99.90
22212;DHT22;11275;52.488;13.462;2023-04-01T17:15:46;8.90;99.90
22212;DHT22;11275;52.488;13.462;2023-04-01T17:21:10;8.50;99.90
22212;DHT22;11275;52.488;13.462;2023-04-01T17:24:00;8.30;99.90
22212;DHT22;11275;52.488;13.462;2023-04-01T17:34:42;8.20;99.90
22212;DHT22;11275;52.488;13.462;2023-04-01T17:40:20;8.30;99.90
22212;DHT22;11275;52.488;13.462;2023-04-01T17:45:33;8.40;99.90
22212;DHT22;11275;52.488;13.462;2023-04-01T17:53:53;8.30;99.90
22212;DHT22;11275;52.488;13.462;2023-04-01T17:59:31;8.10;99.90
22212;DHT22;11275;52.488;13.462;2023-04-01T18:12:56;7.60;99.90
22212;DHT22;11275;52.488;13.462;2023-04-01T18:15:46;7.90;99.90
22212;DHT22;11275;52.488;13.462;2023-04-01T18:21:47;7.90;99.90
22212;DHT22;11275;52.488;13.462;2023-04-01T18:24:35;8.00;99.90
22212;DHT22;11275;52.488;13.462;2023-04-01T18:27:22;7.90;99.90
22212;DHT22;11275;52.488;13.462;2023-04-01T18:35:17;7.80;99.90
22212;DHT22;11275;52.488;13.462;2023-04-01T18:37:51;7.90;99.90
22212;DHT22;11275;52.488;13.462;2023-04-01T18:45:41;7.80;99.90
22212;DHT22;11275;52.488;13.462;2023-04-01T18:51:44;7.80;99.90
22212;DHT22;11275;52.488;13.462;2023-04-01T18:56:47;7.70;99.90
22212;DHT22;11275;52.488;13.462;2023-04-01T18:59:17;7.70;99.90
22212;DHT22;11275;52.488;13.462;2023-04-01T19:01:51;7.70;99.90
22212;DHT22;11275;52.488;13.462;2023-04-01T19:04:39;7.80;99.90
22212;DHT22;11275;52.488;13.462;2023-04-01T19:09:52;7.70;99.90
22212;DHT22;11275;52.488;13.462;2023-04-01T19:12:54;7.50;99.90
22212;DHT22;11275;52.488;13.462;2023-04-01T19:18:15;7.30;99.90
22212;DHT22;11275;52.488;13.462;2023-04-01T19:20:52;7.30;99.90
22212;DHT22;11275;52.488;13.462;2023-04-01T19:26:18;7.40;99.90
22212;DHT22;11275;52.488;13.462;2023-04-01T19:29:10;7.40;99.90
22212;DHT22;11275;52.488;13.462;2023-04-01T19:31:59;7.50;99.90
22212;DHT22;11275;52.488;13.462;2023-04-01T19:43:03;7.50;99.90
22212;DHT22;11275;52.488;13.462;2023-04-01T19:50:58;7.30;99.90
22212;DHT22;11275;52.488;13.462;2023-04-01T19:56:16;7.20;99.90
22212;DHT22;11275;52.488;13.462;2023-04-01T19:58:58;7.30;99.90
22212;DHT22;11275;52.488;13.462;2023-04-01T20:01:34;7.40;99.90
22212;DHT22;11275;52.488;13.462;2023-04-01T20:04:33;7.30;99.90
22212;DHT22;11275;52.488;13.462;2023-04-01T20:07:37;7.20;99.90
22212;DHT22;11275;52.488;13.462;2023-04-01T20:17:52;7.30;99.90
22212;DHT22;11275;52.488;13.462;2023-04-01T20:20:21;7.20;99.90
22212;DHT22;11275;52.488;13.462;2023-04-01T20:25:58;7.30;99.90
22212;DHT22;11275;52.488;13.462;2023-04-01T20:28:42;7.40;99.90
22212;DHT22;11275;52.488;13.462;2023-04-01T20:31:31;7.40;99.90
22212;DHT22;11275;52.488;13.462;2023-04-01T20:34:15;7.40;99.90
22212;DHT22;11275;52.488;13.462;2023-04-01T20:36:58;7.10;99.90
22212;DHT22;11275;52.488;13.462;2023-04-01T20:39:46;7.00;99.90
22212;DHT22;11275;52.488;13.462;2023-04-01T20:45:38;6.70;99.90
22212;DHT22;11275;52.488;13.462;2023-04-01T20:51:42;6.80;99.90
22212;DHT22;11275;52.488;13.462;2023-04-01T20:54:13;6.80;99.90
22212;DHT22;11275;52.488;13.462;2023-04-01T20:57:49;6.90;99.90
22212;DHT22;11275;52.488;13.462;2023-04-01T20:59:58;6.80;99.90
22212;DHT22;11275;52.488;13.462;2023-04-01T21:08:44;6.70;99.90
22212;DHT22;11275;52.488;13.462;2023-04-01T21:14:11;6.70;99.90
22212;DHT22;11275;52.488;13.462;2023-04-01T21:27:50;6.30;99.90
22212;DHT22;11275;52.488;13.462;2023-04-01T21:33:59;6.20;99.90
22212;DHT22;11275;52.488;13.462;2023-04-01T21:53:51;6.10;99.90
22212;DHT22;11275;52.488;13.462;2023-04-01T22:12:37;6.00;99.90
22212;DHT22;11275;52.488;13.462;2023-04-01T22:17:57;5.90;99.90
22212;DHT22;11275;52.488;13.462;2023-04-01T22:26:23;5.80;99.90
22212;DHT22;11275;52.488;13.462;2023-04-01T22:29:28;6.00;99.90
22212;DHT22;11275;52.488;13.462;2023-04-01T22:32:04;6.00;99.90
22212;DHT22;11275;52.488;13.462;2023-04-01T22:34:37;5.90;99.90
22212;DHT22;11275;52.488;13.462;2023-04-01T22:40:11;6.00;99.90
22212;DHT22;11275;52.488;13.462;2023-04-01T22:42:40;5.90;99.90
22212;DHT22;11275;52.488;13.462;2023-04-01T22:50:14;6.00;99.90
22212;DHT22;11275;52.488;13.462;2023-04-01T22:52:43;6.20;99.90
22212;DHT22;11275;52.488;13.462;2023-04-01T22:55:17;6.00;99.90
22212;DHT22;11275;52.488;13.462;2023-04-01T22:58:15;6.10;99.90
22212;DHT22;11275;52.488;13.462;2023-04-01T23:00:47;6.20;99.90
22212;DHT22;11275;52.488;13.462;2023-04-01T23:03:34;6.30;99.90
22212;DHT22;11275;52.488;13.462;2023-04-01T23:06:03;6.30;99.90
22212;DHT22;11275;52.488;13.462;2023-04-01T23:08:52;6.10;99.90
22212;DHT22;11275;52.488;13.462;2023-04-01T23:17:12;6.10;99.90
22212;DHT22;11275;52.488;13.462;2023-04-01T23:19:52;6.00;99.90
22212;DHT22;11275;52.488;13.462;2023-04-01T23:22:44;5.80;99.90
22212;DHT22;11275;52.488;13.462;2023-04-01T23:38:19;5.70;99.90
22212;DHT22;11275;52.488;13.462;2023-04-01T23:40:47;5.80;99.90
22212;DHT22;11275;52.488;13.462;2023-04-01T23:43:38;5.90;99.90
22212;DHT22;11275;52.488;13.462;2023-04-01T23:46:06;6.10;99.90
22212;DHT22;11275;52.488;13.462;2023-04-01T23:48:38;6.10;99.90
22212;DHT22;11275;52.488;13.462;2023-04-01T23:51:56;6.20;99.90
22212;DHT22;11275;52.488;13.462;2023-04-01T23:54:03;6.30;99.90
22212;DHT22;11275;52.488;13.462;2023-04-01T23:56:43;6.00;99.90
22212;DHT22;11275;52.488;13.462;2023-04-01T23:59:18;5.90;99.90
